To NAV CANADA Home Page Login to a new session Search on AWWS site Feedback and Comments Disclaimer Vers la page française équivalente Tips FAQ What's new on the site To the Forecasts and Observations / NOTAM section To "File a Flight Plan" website Publications and other links Update of the User's profile FIC Telephone Numbers My Weather Data Folder Route Weather Data Regional Weather Data Local Weather Data To the Forecasts and Observations / NOTAM section
Request Generated 04/25/2014 at 06:01:29 UTC . Weather information available at that time is displayed.

METAR/TAF

TORONTO/LESTER B. PEARSON INTL/ON    

METAR CYYZ 250500Z 08005KT 15SM SCT100 OVC140 08/M07 A2998 RMK AC4AC4
SLP156=
METAR CYYZ 250400Z 15002KT 15SM SCT120 BKN150 08/M08 A3002 RMK AC3AC4
SLP169=
METAR CYYZ 250300Z 10004KT 15SM BKN120 08/M08 A3003 RMK AC7 SLP174=

TAF CYYZ 250538Z 2506/2612 07007KT P6SM SCT100 BKN150
BECMG 2510/2512 09015G25KT
FM251700 08020G30KT P6SM OVC060
FM252000 07015KT P6SM -RA OVC050
FM252300 05010KT P6SM -RA OVC030 TEMPO 2523/2603 6SM -RA OVC020
FM260300 35015KT P6SM OVC020
FM260800 34008KT P6SM FEW020
FM261100 33007KT P6SM BKN030 OVC090
RMK NXT FCST BY 250900Z=
Your time UTC time
Weather data provided by Environment Canada and NAV CANADA